This is the latest recevied weather packets stored in our database for station/object N5ZKK. If no packets are shown the sender has not sent any weather packets the latest 10 day(s).
| Time | Temp. | Humidity | Pressure | Rain* | Wind** | Luminosity | Snow |
|---|---|---|---|---|---|---|---|
| 1788139611 | 87° F | 55% | 760 mmHg | 0 in | - | - | - |
| 1788138411 | 88° F | 52% | 759.9 mmHg | 0 in | - | - | - |
| 1788137211 | 90° F | 49% | 759.7 mmHg | 0 in | - | - | - |
| 1788136611 | 91° F | 47% | 759.5 mmHg | 0 in | - | - | - |
| 1788136011 | 92° F | 45% | 759.4 mmHg | 0 in | - | - | - |
| 1788135711 | 92° F | 46% | 759.4 mmHg | 0 in | - | - | - |
| 1788135318 | 92° F | 44% | 759.4 mmHg | 0 in | - | - | - |
| 1788134118 | 93° F | 44% | 759.2 mmHg | 0 in | - | - | - |
| 1788132918 | 94° F | 44% | 759.2 mmHg | 0 in | - | - | - |
| 1788132318 | 94° F | 44% | 759.1 mmHg | 0 in | - | - | - |
| 1788131718 | 94° F | 44% | 759.2 mmHg | 0 in | - | - | - |
| 1788131418 | 94° F | 44% | 759.3 mmHg | 0 in | - | - | - |
| 1788130687 | 96° F | 43% | 759.1 mmHg | 0 in | - | - | - |
| 1788129487 | 96° F | 43% | 759.2 mmHg | 0 in | - | - | - |
| 1788128287 | 96° F | 42% | 759.1 mmHg | 0 in | - | - | - |
| 1788127687 | 96° F | 43% | 759.2 mmHg | 0 in | - | - | - |
| 1788127087 | 95° F | 44% | 759.4 mmHg | 0 in | - | - | - |
| 1788126794 | 96° F | 42% | 759.3 mmHg | 0 in | - | - | - |
| 1788126194 | 96° F | 43% | 759.3 mmHg | 0 in | - | - | - |
| 1788125894 | 96° F | 43% | 759.3 mmHg | 0 in | - | - | - |
| 1788125822 | 96° F | 43% | 759.3 mmHg | 0 in | - | - | - |
| 1788125522 | 96° F | 42% | 759.4 mmHg | 0 in | - | - | - |
| 1788123612 | 96° F | 43% | 760 mmHg | 0 in | - | - | - |
| 1788121812 | 99° F | 39% | 760 mmHg | 0 in | - | - | - |
| 1788120012 | 97° F | 45% | 760.6 mmHg | 0 in | - | - | - |
* Rain latest hour (hover to see other rain measurements)
** Current wind speed in m/s (hover to see current wind gust speed)